createdAt,value
2018-05-26T00:02:18.991Z,5.50
2018-05-26T00:04:46.497Z,6.67
2018-05-26T00:07:16.400Z,5.33
2018-05-26T00:09:43.944Z,5.03
2018-05-26T00:12:11.457Z,6.73
2018-05-26T00:14:39.011Z,6.47
2018-05-26T00:17:06.525Z,6.20
2018-05-26T00:19:34.080Z,5.90
2018-05-26T00:22:01.589Z,5.80
2018-05-26T00:24:29.126Z,5.50
2018-05-26T00:26:57.404Z,5.90
2018-05-26T00:29:24.946Z,5.70
2018-05-26T00:31:52.455Z,5.10
2018-05-26T00:41:59.904Z,6.47
2018-05-26T00:44:27.414Z,5.53
2018-05-26T00:46:54.959Z,6.07
2018-05-26T00:49:22.482Z,6.10
2018-05-26T00:51:49.994Z,6.50
2018-05-26T00:54:17.536Z,6.27
2018-05-26T00:56:45.050Z,6.50
2018-05-26T00:59:12.604Z,7.23
2018-05-26T01:01:40.114Z,7.90
2018-05-26T01:04:08.340Z,7.00
2018-05-26T01:06:35.864Z,7.33
2018-05-26T01:09:03.412Z,6.90
2018-05-26T01:11:30.926Z,7.93
2018-05-26T01:13:58.472Z,8.00
2018-05-26T01:16:26.400Z,7.40
2018-05-26T01:18:53.961Z,7.67
2018-05-26T01:21:21.475Z,7.63
2018-05-26T01:23:49.027Z,8.17
2018-05-26T01:26:16.536Z,7.00
2018-05-26T01:28:44.044Z,7.67
2018-05-26T01:31:11.600Z,6.90
2018-05-26T01:33:39.116Z,7.70
2018-05-26T01:36:06.676Z,6.90
2018-05-26T01:38:34.191Z,6.43
2018-05-26T01:41:01.736Z,6.97
2018-05-26T01:43:32.215Z,6.50
2018-05-26T01:45:59.792Z,7.03
2018-05-26T01:48:27.313Z,7.27
2018-05-26T01:50:54.840Z,6.80
2018-05-26T01:53:23.158Z,6.30
2018-05-26T01:55:50.672Z,6.33
2018-05-26T01:58:18.210Z,7.00
2018-05-26T02:00:46.488Z,7.60
2018-05-26T02:03:14.795Z,7.17
2018-05-26T02:05:42.308Z,6.77
2018-05-26T02:08:09.872Z,7.30
2018-05-26T02:10:37.383Z,7.47
2018-05-26T02:13:04.936Z,6.93
2018-05-26T02:15:32.479Z,7.33
2018-05-26T02:18:00.088Z,7.60
2018-05-26T02:20:27.816Z,7.27
2018-05-26T02:22:55.334Z,8.20
2018-05-26T02:25:23.447Z,6.83
2018-05-26T02:27:50.960Z,7.90
2018-05-26T02:30:18.504Z,7.37
2018-05-26T02:32:46.027Z,6.83
2018-05-26T02:35:13.563Z,7.53
2018-05-26T02:37:41.844Z,6.87
2018-05-26T02:40:10.156Z,7.63
2018-05-26T02:42:37.681Z,7.43
2018-05-26T02:45:05.216Z,8.00
2018-05-26T02:47:33.508Z,8.13
2018-05-26T02:50:01.832Z,7.33
2018-05-26T02:52:29.348Z,7.20
2018-05-26T02:54:56.904Z,8.17
2018-05-26T02:57:25.185Z,8.17
2018-05-26T02:59:52.708Z,6.97
2018-05-26T03:02:20.267Z,8.17
2018-05-26T03:04:53.536Z,7.97
2018-05-26T03:07:26.779Z,7.63
2018-05-26T03:09:59.854Z,7.57
2018-05-26T03:12:33.074Z,6.70
2018-05-26T03:15:00.104Z,6.43
2018-05-26T03:17:32.281Z,7.20
2018-05-26T03:20:00.571Z,7.33
2018-05-26T03:22:28.267Z,7.30
2018-05-26T03:24:55.796Z,7.23
2018-05-26T03:27:24.675Z,7.13
2018-05-26T03:29:52.947Z,6.63
2018-05-26T03:32:20.496Z,7.10
2018-05-26T03:34:48.019Z,7.13
2018-05-26T03:37:15.578Z,8.07
2018-05-26T03:39:43.083Z,7.73
2018-05-26T03:42:11.402Z,7.70
2018-05-26T03:44:41.811Z,8.27
2018-05-26T03:47:09.371Z,7.83
2018-05-26T03:49:36.887Z,7.80
2018-05-26T03:52:04.396Z,7.63
2018-05-26T03:54:43.771Z,7.50
2018-05-26T03:57:23.091Z,7.83
2018-05-26T04:02:48.140Z,7.00
2018-05-26T04:05:15.657Z,6.70
2018-05-26T04:07:43.285Z,7.13
2018-05-26T04:10:11.629Z,6.27
2018-05-26T04:12:39.175Z,6.23
2018-05-26T04:15:07.193Z,6.87
2018-05-26T04:17:34.708Z,6.77
2018-05-26T04:20:03.588Z,6.47
2018-05-26T04:22:31.105Z,6.27
2018-05-26T04:24:59.421Z,6.73
2018-05-26T04:27:27.147Z,6.83
2018-05-26T04:29:54.687Z,6.50
2018-05-26T04:32:22.963Z,7.13
2018-05-26T04:34:51.271Z,7.27
2018-05-26T04:37:18.812Z,6.37
2018-05-26T04:39:47.134Z,6.33
2018-05-26T04:42:14.650Z,5.77
2018-05-26T04:44:42.212Z,6.83
2018-05-26T04:47:09.739Z,6.20
2018-05-26T04:49:37.249Z,6.27
2018-05-26T04:52:04.787Z,6.90
2018-05-26T04:54:33.512Z,6.20
2018-05-26T04:57:01.059Z,6.53
2018-05-26T04:59:28.566Z,6.77
2018-05-26T05:01:56.116Z,6.20
2018-05-26T05:04:23.650Z,6.23
2018-05-26T05:06:51.191Z,6.40
2018-05-26T05:09:19.027Z,6.30
2018-05-26T05:11:47.346Z,6.63
2018-05-26T05:14:14.865Z,6.07
2018-05-26T05:16:43.201Z,6.23
2018-05-26T05:19:10.709Z,6.23
2018-05-26T05:21:38.247Z,6.70
2018-05-26T05:24:05.754Z,6.50
2018-05-26T05:26:33.279Z,6.17
2018-05-26T05:29:01.558Z,5.97
2018-05-26T05:31:29.100Z,5.90
2018-05-26T05:33:56.603Z,6.97
2018-05-26T05:36:24.151Z,6.43
2018-05-26T05:38:52.103Z,5.43
2018-05-26T05:41:20.366Z,6.03
2018-05-26T05:52:06.123Z,6.20
2018-05-26T05:54:34.387Z,5.57
2018-05-26T05:57:02.776Z,6.27
2018-05-26T05:59:30.296Z,5.63
2018-05-26T06:01:57.835Z,5.70
2018-05-26T06:04:25.380Z,5.80
2018-05-26T06:06:52.925Z,5.17
2018-05-26T06:09:21.698Z,5.70
2018-05-26T06:11:50.499Z,5.80
2018-05-26T06:14:18.045Z,5.43
2018-05-26T06:16:45.564Z,5.47
2018-05-26T06:19:13.126Z,6.20
2018-05-26T06:21:41.856Z,5.63
2018-05-26T06:24:09.402Z,5.60
2018-05-26T06:26:36.916Z,5.73
2018-05-26T06:29:04.459Z,6.47
2018-05-26T06:31:31.959Z,5.83
2018-05-26T06:33:59.516Z,5.63
2018-05-26T06:36:27.040Z,5.47
2018-05-26T06:38:54.579Z,4.80
2018-05-26T06:41:22.094Z,5.13
2018-05-26T06:43:49.652Z,5.60
2018-05-26T06:46:17.153Z,5.30
2018-05-26T06:48:44.712Z,5.27
2018-05-26T06:51:12.234Z,4.70
2018-05-26T06:53:39.779Z,4.60
2018-05-26T06:56:07.276Z,5.13
2018-05-26T06:58:35.391Z,4.77
2018-05-26T07:01:02.904Z,4.77
2018-05-26T07:03:31.173Z,4.93
2018-05-26T07:05:58.736Z,4.33
2018-05-26T07:08:26.248Z,4.70
2018-05-26T07:10:53.827Z,3.97
2018-05-26T07:13:21.343Z,4.67
2018-05-26T07:15:48.913Z,4.33
2018-05-26T07:18:16.433Z,4.97
2018-05-26T07:20:43.979Z,4.63
2018-05-26T07:23:11.484Z,4.23
2018-05-26T07:25:39.410Z,4.67
2018-05-26T07:28:06.915Z,4.20
2018-05-26T07:30:34.455Z,4.43
2018-05-26T07:33:02.726Z,4.43
2018-05-26T07:35:30.240Z,5.37
2018-05-26T07:37:57.771Z,4.53
2018-05-26T07:40:25.280Z,4.90
2018-05-26T07:42:52.812Z,4.27
2018-05-26T07:45:20.322Z,5.13
2018-05-26T07:47:48.636Z,5.10
2018-05-26T07:50:16.158Z,5.03
2018-05-26T07:52:43.715Z,4.90
2018-05-26T07:55:11.999Z,5.07
2018-05-26T07:57:40.301Z,4.90
2018-05-26T08:00:07.855Z,4.30
2018-05-26T08:02:35.357Z,4.77
2018-05-26T08:05:02.859Z,4.50
2018-05-26T08:07:30.413Z,5.53
2018-05-26T08:09:57.971Z,4.83
2018-05-26T08:12:26.251Z,4.30
2018-05-26T08:14:53.804Z,4.70
2018-05-26T08:17:21.345Z,4.90
2018-05-26T08:19:48.908Z,4.77
2018-05-26T08:22:16.430Z,4.60
2018-05-26T08:24:43.985Z,4.60
2018-05-26T08:27:11.547Z,3.67
2018-05-26T08:29:39.202Z,4.13
2018-05-26T08:32:06.771Z,4.90
2018-05-26T08:34:34.353Z,4.43
2018-05-26T08:37:01.986Z,4.70
2018-05-26T08:39:29.553Z,3.87
2018-05-26T08:41:57.097Z,4.30
2018-05-26T08:44:24.725Z,4.17
2018-05-26T08:46:53.073Z,3.93
2018-05-26T08:49:20.602Z,4.90
2018-05-26T08:51:48.158Z,3.70
2018-05-26T08:54:15.698Z,3.70
2018-05-26T08:56:43.331Z,4.13
2018-05-26T08:59:11.640Z,7.80
2018-05-26T09:01:39.208Z,4.23
2018-05-26T09:04:06.773Z,4.03
2018-05-26T09:06:35.815Z,3.83
2018-05-26T09:09:03.367Z,4.33
2018-05-26T09:11:31.776Z,4.00
2018-05-26T09:13:59.323Z,4.20
2018-05-26T09:16:26.920Z,3.80
2018-05-26T09:18:54.487Z,3.27
2018-05-26T09:21:22.037Z,3.20
2018-05-26T09:23:49.630Z,3.53
2018-05-26T09:26:17.177Z,3.60
2018-05-26T09:28:44.783Z,3.37
2018-05-26T09:31:12.336Z,3.40
2018-05-26T09:33:39.884Z,3.33
2018-05-26T09:36:07.420Z,3.42
2018-05-26T09:38:35.016Z,3.12
2018-05-26T09:41:02.564Z,3.15
2018-05-26T09:43:30.170Z,3.28
2018-05-26T09:45:57.725Z,3.28
2018-05-26T09:48:25.330Z,3.30
2018-05-26T09:50:52.872Z,3.53
2018-05-26T09:53:20.411Z,3.40
2018-05-26T09:55:47.973Z,2.62
2018-05-26T09:58:15.537Z,2.87
2018-05-26T10:00:43.204Z,3.12
2018-05-26T10:03:10.771Z,3.17
2018-05-26T10:05:38.340Z,2.87
2018-05-26T10:08:05.880Z,3.10
2018-05-26T10:10:33.472Z,2.80
2018-05-26T10:13:01.000Z,2.90
2018-05-26T10:15:28.566Z,3.40
2018-05-26T10:17:56.119Z,3.20
2018-05-26T10:20:23.690Z,3.15
2018-05-26T10:22:51.229Z,3.15
2018-05-26T10:25:18.810Z,3.42
2018-05-26T10:27:46.429Z,3.17
2018-05-26T10:30:14.761Z,2.60
2018-05-26T10:32:42.342Z,3.33
2018-05-26T10:35:09.889Z,3.15
2018-05-26T10:37:37.539Z,3.22
2018-05-26T10:40:05.080Z,3.75
2018-05-26T10:42:32.657Z,3.10
2018-05-26T10:45:00.193Z,3.90
2018-05-26T10:47:27.771Z,3.42
2018-05-26T10:49:55.353Z,3.28
2018-05-26T10:52:22.891Z,3.47
2018-05-26T10:54:50.455Z,3.15
2018-05-26T10:57:18.029Z,3.35
2018-05-26T10:59:45.603Z,3.53
2018-05-26T11:02:13.148Z,3.60
2018-05-26T11:04:40.714Z,3.50
2018-05-26T11:07:08.235Z,3.28
2018-05-26T11:09:35.829Z,3.20
2018-05-26T11:12:03.407Z,3.80
2018-05-26T11:14:31.037Z,3.65
2018-05-26T11:16:58.549Z,3.17
2018-05-26T11:19:26.123Z,3.33
2018-05-26T11:21:53.673Z,3.17
2018-05-26T11:24:21.326Z,3.12
2018-05-26T11:26:48.819Z,3.35
2018-05-26T11:29:16.394Z,3.00
2018-05-26T11:31:43.969Z,3.15
2018-05-26T11:34:11.511Z,2.67
2018-05-26T11:36:39.068Z,2.33
2018-05-26T11:39:06.572Z,2.47
2018-05-26T11:41:34.130Z,2.03
2018-05-26T11:44:02.052Z,2.15
2018-05-26T11:46:29.599Z,2.58
2018-05-26T11:48:57.127Z,2.65
2018-05-26T11:51:25.441Z,2.87
2018-05-26T11:53:52.948Z,2.58
2018-05-26T11:56:20.486Z,2.87
2018-05-26T11:58:48.027Z,2.80
2018-05-26T12:01:15.538Z,2.85
2018-05-26T12:03:43.864Z,2.37
2018-05-26T12:06:11.391Z,2.78
2018-05-26T12:08:39.696Z,2.47
2018-05-26T12:11:07.271Z,2.85
2018-05-26T12:13:35.539Z,2.60
2018-05-26T12:16:03.047Z,2.90
2018-05-26T12:18:31.371Z,2.90
2018-05-26T12:20:58.870Z,3.05
2018-05-26T12:23:26.415Z,2.75
2018-05-26T12:25:53.918Z,3.00
2018-05-26T12:28:21.451Z,2.87
2018-05-26T12:30:48.987Z,3.03
2018-05-26T12:33:16.505Z,3.03
2018-05-26T12:35:44.051Z,19.58
2018-05-26T12:38:12.331Z,3.15
2018-05-26T12:40:39.871Z,2.90
2018-05-26T12:43:07.379Z,2.80
2018-05-26T12:45:34.933Z,2.62
2018-05-26T12:48:03.211Z,3.15
2018-05-26T12:50:30.744Z,2.80
2018-05-26T12:52:58.255Z,3.00
2018-05-26T12:55:26.559Z,3.45
2018-05-26T12:57:54.082Z,3.40
2018-05-26T13:00:21.621Z,2.67
2018-05-26T13:02:49.127Z,3.15
2018-05-26T13:05:16.686Z,2.92
2018-05-26T13:07:44.959Z,3.22
2018-05-26T13:10:13.219Z,2.92
2018-05-26T13:12:40.735Z,2.50
2018-05-26T13:15:08.226Z,3.03
2018-05-26T13:17:35.783Z,4.35
2018-05-26T13:20:03.291Z,2.80
2018-05-26T13:22:31.602Z,5.65
2018-05-26T13:24:59.107Z,5.70
2018-05-26T13:27:27.237Z,2.97
2018-05-26T13:29:54.739Z,2.85
2018-05-26T13:32:22.276Z,3.03
2018-05-26T13:34:49.775Z,3.00
2018-05-26T13:37:17.311Z,3.37
2018-05-26T13:39:44.823Z,4.00
2018-05-26T13:42:12.365Z,2.80
2018-05-26T13:44:40.195Z,2.70
2018-05-26T13:47:07.736Z,2.72
2018-05-26T13:49:35.261Z,2.65
2018-05-26T13:52:02.890Z,2.75
2018-05-26T13:54:30.331Z,3.03
2018-05-26T13:56:57.839Z,3.40
2018-05-26T13:59:25.379Z,2.92
2018-05-26T14:01:52.890Z,2.78
2018-05-26T14:04:20.422Z,2.83
2018-05-26T14:06:47.946Z,2.70
2018-05-26T14:09:15.493Z,2.87
2018-05-26T14:11:43.000Z,3.17
2018-05-26T14:14:10.548Z,3.00
2018-05-26T14:16:38.138Z,3.15
2018-05-26T14:19:05.599Z,2.90
2018-05-26T14:21:33.125Z,3.50
2018-05-26T14:24:00.683Z,4.93
2018-05-26T14:26:28.191Z,4.05
2018-05-26T14:28:55.728Z,2.97
2018-05-26T14:31:23.233Z,3.70
2018-05-26T14:33:51.556Z,3.33
2018-05-26T14:36:19.117Z,3.67
2018-05-26T14:38:46.611Z,2.97
2018-05-26T14:41:14.166Z,3.37
2018-05-26T14:43:41.671Z,4.22
2018-05-26T14:46:09.218Z,3.70
2018-05-26T14:48:37.490Z,3.37
2018-05-26T14:51:05.810Z,3.50
2018-05-26T14:53:33.325Z,3.15
2018-05-26T14:56:00.874Z,3.20
2018-05-26T14:58:28.398Z,3.12
2018-05-26T15:00:55.964Z,3.30
2018-05-26T15:03:23.478Z,3.35
2018-05-26T15:05:51.024Z,3.22
2018-05-26T15:08:18.531Z,3.10
2018-05-26T15:10:46.078Z,3.00
2018-05-26T15:13:14.395Z,3.30
2018-05-26T15:15:41.904Z,3.47
2018-05-26T15:18:09.433Z,3.20
2018-05-26T15:20:37.845Z,3.37
2018-05-26T15:23:05.357Z,3.23
2018-05-26T15:25:32.870Z,3.23
2018-05-26T15:28:00.415Z,3.17
2018-05-26T15:30:27.939Z,3.83
2018-05-26T15:32:55.484Z,3.67
2018-05-26T15:35:22.997Z,3.50
2018-05-26T15:37:50.571Z,3.37
2018-05-26T15:40:18.075Z,3.23
2018-05-26T15:42:45.620Z,3.43
2018-05-26T15:45:13.152Z,3.20
2018-05-26T15:47:40.673Z,3.60
2018-05-26T15:50:08.185Z,3.80
2018-05-26T15:52:35.730Z,3.20
2018-05-26T15:55:03.240Z,3.80
2018-05-26T15:57:30.788Z,3.30
2018-05-26T15:59:58.316Z,3.60
2018-05-26T16:02:25.855Z,3.30
2018-05-26T16:04:53.360Z,3.40
2018-05-26T16:07:20.911Z,3.57
2018-05-26T16:09:48.415Z,3.50
2018-05-26T16:12:15.917Z,3.20
2018-05-26T16:14:43.470Z,3.60
2018-05-26T16:17:10.977Z,3.50
2018-05-26T16:19:38.515Z,3.47
2018-05-26T16:22:06.030Z,3.87
2018-05-26T16:24:33.576Z,3.40
2018-05-26T16:27:01.082Z,3.47
2018-05-26T16:29:28.634Z,3.80
2018-05-26T16:31:56.168Z,3.83
2018-05-26T16:34:23.708Z,3.67
2018-05-26T16:36:51.213Z,3.43
2018-05-26T16:39:18.749Z,3.37
2018-05-26T16:41:46.246Z,3.27
2018-05-26T16:44:13.793Z,3.87
2018-05-26T16:46:41.297Z,3.20
2018-05-26T16:49:08.841Z,3.53
2018-05-26T16:51:37.123Z,3.73
2018-05-26T16:54:05.395Z,3.20
2018-05-26T16:56:33.704Z,3.63
2018-05-26T16:59:01.283Z,3.73
2018-05-26T17:01:28.823Z,3.60
2018-05-26T17:03:56.333Z,3.57
2018-05-26T17:06:23.931Z,3.50
2018-05-26T17:08:51.466Z,3.30
2018-05-26T17:11:19.010Z,3.57
2018-05-26T17:13:46.516Z,3.70
2018-05-26T17:16:14.471Z,3.10
2018-05-26T17:18:41.998Z,3.40
2018-05-26T17:21:09.555Z,3.50
2018-05-26T17:23:37.069Z,3.50
2018-05-26T17:26:04.616Z,3.60
2018-05-26T17:28:32.143Z,3.90
2018-05-26T17:30:59.693Z,3.60
2018-05-26T17:33:27.213Z,3.57
2018-05-26T17:35:54.768Z,4.07
2018-05-26T17:38:22.295Z,3.70
2018-05-26T17:40:50.596Z,3.60
2018-05-26T17:43:18.156Z,3.37
2018-05-26T17:45:45.662Z,3.70
2018-05-26T17:48:13.198Z,4.10
2018-05-26T17:50:40.725Z,3.70
2018-05-26T17:53:08.279Z,4.10
2018-05-26T17:55:35.791Z,3.87
2018-05-26T17:58:03.331Z,3.80
2018-05-26T18:00:30.835Z,4.27
2018-05-26T18:02:58.374Z,3.90
2018-05-26T18:05:25.878Z,3.83
2018-05-26T18:07:53.431Z,4.27
2018-05-26T18:10:20.954Z,4.13
2018-05-26T18:12:48.511Z,4.13
2018-05-26T18:15:16.022Z,4.23
2018-05-26T18:17:43.577Z,4.70
2018-05-26T18:20:11.099Z,5.13
2018-05-26T18:22:38.641Z,4.30
2018-05-26T18:25:06.155Z,4.87
2018-05-26T18:27:33.733Z,4.50
2018-05-26T18:30:01.249Z,5.00
2018-05-26T18:32:28.805Z,4.93
2018-05-26T18:34:57.094Z,4.63
2018-05-26T18:37:25.365Z,4.90
2018-05-26T18:39:53.684Z,4.50
2018-05-26T18:42:21.205Z,5.10
2018-05-26T18:44:49.519Z,4.50
2018-05-26T18:47:17.039Z,4.80
2018-05-26T18:49:45.357Z,5.00
2018-05-26T18:52:12.869Z,5.57
2018-05-26T18:54:40.425Z,5.83
2018-05-26T18:57:08.707Z,5.30
2018-05-26T18:59:37.009Z,5.10
2018-05-26T19:02:04.504Z,6.07
2018-05-26T19:04:32.056Z,5.53
2018-05-26T19:06:59.589Z,5.57
2018-05-26T19:09:27.131Z,5.90
2018-05-26T19:11:54.644Z,6.40
2018-05-26T19:14:22.208Z,5.93
2018-05-26T19:16:49.728Z,6.40
2018-05-26T19:19:17.237Z,5.93
2018-05-26T19:21:44.784Z,6.33
2018-05-26T19:24:12.316Z,6.70
2018-05-26T19:26:39.871Z,6.50
2018-05-26T19:29:07.382Z,7.07
2018-05-26T19:31:34.941Z,6.47
2018-05-26T19:34:02.457Z,5.97
2018-05-26T19:36:30.006Z,6.80
2018-05-26T19:38:57.513Z,6.23
2018-05-26T19:41:25.058Z,7.23
2018-05-26T19:43:52.570Z,6.90
2018-05-26T19:46:20.128Z,6.50
2018-05-26T19:48:47.668Z,7.07
2018-05-26T19:51:15.988Z,7.33
2018-05-26T19:53:43.546Z,7.47
2018-05-26T19:56:11.112Z,6.93
2018-05-26T19:58:38.628Z,6.93
2018-05-26T20:01:06.939Z,7.50
2018-05-26T20:03:34.450Z,6.87
2018-05-26T20:06:02.011Z,6.47
2018-05-26T20:08:29.526Z,7.00
2018-05-26T20:10:57.022Z,7.13
2018-05-26T20:13:25.336Z,6.37
2018-05-26T20:15:52.860Z,6.43
2018-05-26T20:18:20.441Z,7.00
2018-05-26T20:20:47.935Z,6.73
2018-05-26T20:23:15.515Z,6.53
2018-05-26T20:25:43.023Z,6.97
2018-05-26T20:28:10.586Z,6.70
2018-05-26T20:30:38.851Z,7.13
2018-05-26T20:33:07.152Z,6.67
2018-05-26T20:35:34.650Z,6.70
2018-05-26T20:38:02.503Z,7.00
2018-05-26T20:40:30.000Z,6.90
2018-05-26T20:42:57.554Z,6.23
2018-05-26T20:45:25.063Z,7.63
2018-05-26T20:47:52.606Z,6.70
2018-05-26T20:50:20.125Z,6.87
2018-05-26T20:52:47.671Z,6.40
2018-05-26T20:55:15.210Z,6.97
2018-05-26T20:57:42.722Z,6.00
2018-05-26T21:00:11.034Z,6.47
2018-05-26T21:02:38.541Z,6.70
2018-05-26T21:05:06.087Z,6.63
2018-05-26T21:07:33.598Z,6.97
2018-05-26T21:10:01.162Z,6.60
2018-05-26T21:12:28.681Z,6.60
2018-05-26T21:14:56.235Z,8.37
2018-05-26T21:17:23.753Z,11.43
2018-05-26T21:19:51.305Z,11.13
2018-05-26T21:22:18.823Z,11.43
2018-05-26T21:24:46.371Z,10.87
2018-05-26T21:27:13.882Z,10.30
2018-05-26T21:29:41.439Z,11.23
2018-05-26T21:32:08.963Z,11.73
2018-05-26T21:34:36.506Z,17.40
2018-05-26T21:37:04.023Z,31.00
2018-05-26T21:39:31.588Z,37.20
2018-05-26T21:41:59.092Z,25.40
2018-05-26T21:44:26.604Z,26.07
2018-05-26T21:46:54.153Z,28.17
2018-05-26T21:49:21.665Z,34.17
2018-05-26T21:51:49.229Z,35.20
2018-05-26T21:54:16.744Z,34.87
2018-05-26T21:56:44.485Z,34.80
2018-05-26T21:59:11.994Z,31.87
2018-05-26T22:01:39.538Z,24.23
2018-05-26T22:04:07.042Z,23.77
2018-05-26T22:06:34.598Z,18.77
2018-05-26T22:09:02.871Z,16.23
2018-05-26T22:11:30.417Z,19.83
2018-05-26T22:13:57.931Z,18.43
2018-05-26T22:16:25.492Z,13.23
2018-05-26T22:18:53.005Z,9.43
2018-05-26T22:21:20.514Z,9.43
2018-05-26T22:23:48.057Z,9.07
2018-05-26T22:26:15.554Z,9.37
2018-05-26T22:28:43.106Z,10.13
2018-05-26T22:31:10.623Z,10.07
2018-05-26T22:33:38.183Z,9.47
2018-05-26T22:36:05.693Z,10.37
2018-05-26T22:38:33.244Z,10.60
2018-05-26T22:41:00.768Z,10.43
2018-05-26T22:43:28.321Z,11.03
2018-05-26T22:45:55.838Z,10.93
2018-05-26T22:48:23.348Z,10.93
2018-05-26T22:50:50.904Z,10.77
2018-05-26T22:53:18.416Z,11.30
2018-05-26T22:55:45.959Z,10.80
2018-05-26T22:58:13.464Z,10.63
2018-05-26T23:00:41.789Z,10.87
2018-05-26T23:03:09.303Z,10.97
2018-05-26T23:05:36.852Z,11.70
2018-05-26T23:08:05.133Z,10.87
2018-05-26T23:10:33.452Z,10.90
2018-05-26T23:13:00.972Z,9.93
2018-05-26T23:15:28.525Z,10.70
2018-05-26T23:17:56.043Z,11.27
2018-05-26T23:20:23.605Z,10.87
2018-05-26T23:22:51.119Z,10.60
2018-05-26T23:25:18.677Z,11.67
2018-05-26T23:27:46.199Z,10.60
2018-05-26T23:30:13.755Z,10.93
2018-05-26T23:32:41.266Z,11.23
2018-05-26T23:35:08.810Z,11.53
2018-05-26T23:37:36.332Z,11.43
2018-05-26T23:40:03.943Z,11.63
2018-05-26T23:42:31.456Z,10.87
2018-05-26T23:44:58.977Z,11.60
2018-05-26T23:47:26.556Z,11.20
2018-05-26T23:49:54.077Z,11.33
2018-05-26T23:52:21.615Z,11.40
2018-05-26T23:54:49.139Z,11.77
2018-05-26T23:57:17.440Z,10.80
2018-05-26T23:59:44.958Z,11.00
